Terminal Aerodrome Forecast
Issued by NWS

Home | Current Version | Previous Version | Text Only | Print | Product List | Glossary On
Versions: 1 2 3 4 5 6 7 8 9 10 11 12
775
FTUS46 KPDT 252326
TAFPSC
TAF
KPSC 252326Z 2600/2624 01006KT P6SM SKC
     FM260600 34005KT P6SM FEW250
     FM261200 VRB03KT P6SM BKN200 BKN250
     FM261500 20008KT P6SM SCT150 BKN180
     FM262100 23012G22KT P6SM SCT150 BKN180=

USA.gov is the U.S. government's official web portal to all federal, state and local government web resources and services.